Weather observations for the past three days for
Hilton Head Island, Hilton Head Airport
Metric (Imperial)
Date Time (edt) Wind (kph) Vis. (km) Weather Sky Cond. Temperature (ºC) Relative Humidity Wind Chill (°C) Heat Index (°C) Pressure Precipitation (cm)
Air Dwpt 6 hour altimeter (cm) sea level (mb) 1 hr 3 hr 6 hr
Max. Min.
08 06:15 NE 9 16.09 Partly Cloudy FEW017 SCT039 19 16 83% 76.1 0.0
08 05:55 NE 17 16.09 A Few Clouds FEW016 20 16 78% 76.05 0.0
08 05:35 NE 19 16.09 A Few Clouds FEW017 20 16 78% 76.02 0.0
08 05:15 NE 19 16.09 Fair CLR 20 16 78% 76 0.0
08 04:55 N 20 G 30 16.09 Fair CLR 20 15 73% 76.02 0.0 0.03
08 04:35 N 20 G 30 16.09 Fair CLR 21 15 69% 76 0.0
08 04:15 N 20 16.09 A Few Clouds FEW034 21 15 69% 76 0.0
08 03:55 N 13 G 26 16.09 Fair CLR 21 16 73% 76.02 0.0
08 03:35 N 19 G 30 16.09 A Few Clouds FEW039 21 16 73% 76 0.0
08 03:15 N 15 G 30 16.09 Mostly Cloudy BKN036 22 16 69% 76.02 0.0
08 02:55 N 19 G 28 16.09 Partly Cloudy SCT032 22 16 69% 76.02 0.0 0.05
08 02:35 N 19 G 31 16.09 Fair CLR 22 16 69% 76.02 0.0
08 02:15 NW 15 G 26 16.09 A Few Clouds FEW029 22 18 78% 76 0.0
08 01:55 N 19 16.09 Fair CLR 23 19 78% 76 0.0 0.03
08 01:15 Vrbl 15 16.09 Mostly Cloudy SCT017 BKN029 BKN041 24 21 83% 24 76 0.0
08 00:55 Calm 16.09 Fair CLR 24 22 89% 24 76 0.0
08 00:35 W 11 16.09 A Few Clouds FEW044 24 22 89% 24 75.97 0.0
08 00:15 Vrbl 9 16.09 Partly Cloudy FEW039 SCT045 24 21 83% 24 76 0.0
07 23:55 Vrbl 7 16.09 Partly Cloudy FEW021 FEW025 SCT032 24 22 89% 24 76 0.0
07 23:35 Vrbl 9 16.09 Overcast BKN023 BKN029 OVC046 24 22 89% 24 75.97 0.0
07 23:15 Vrbl 7 16.09 Mostly Cloudy FEW023 SCT028 BKN033 24 21 83% 24 75.95 0.0
07 22:55 W 9 16.09 Fair CLR 24 21 83% 24 75.92 0.0
07 22:35 W 7 16.09 Fair CLR 24 21 83% 24 75.92 0.0
07 22:15 Vrbl 9 16.09 A Few Clouds FEW027 25 21 79% 26 75.92 0.0
07 21:55 W 9 16.09 Fair CLR 25 21 79% 26 75.9 0.0
07 21:35 Vrbl 7 16.09 Fair CLR 25 20 74% 26 75.87 0.0
07 21:15 W 7 16.09 Partly Cloudy SCT031 25 20 74% 26 75.84 0.0
07 20:50 W 9 G 20 16.09 Mostly Cloudy BKN033 26 20 70% 27 75.84 0.0
07 19:50 W 13 G 31 16.09 A Few Clouds FEW049 26 20 70% 27 75.79 0.0
07 18:50 W 19 G 41 16.09 A Few Clouds FEW044 28 20 62% 30 75.77 0.0
07 17:50 W 19 G 31 16.09 Partly Cloudy SCT038 28 20 62% 30 75.77 0.0
07 16:50 W 22 G 41 16.09 Fair CLR 28 19 58% 29 75.77 0.0
07 14:50 W 26 G 37 16.09 Fair CLR 29 18 51% 30 75.84 0.0
07 13:50 SW 22 G 35 16.09 Fair CLR 27 18 58% 28 75.84 0.0
07 12:51 Vrbl 9 11.27 Fair CLR 25 19 69% 26 75.87 0.0
07 11:50 S 30 G 52 6.44 Fair with Haze CLR 24 18 69% 25 75.72 0.0
07 10:50 SW 13 G 28 11.27 Fair CLR 24 19 74% 25 75.95 0.0
07 09:50 Vrbl 7 G 19 16.09 Partly Cloudy FEW080 SCT120 22 19 83% 75.97 0.0
07 08:50 W 15 16.09 Partly Cloudy FEW080 SCT120 22 16 69% 76.05 0.0
07 07:50 W 13 16.09 A Few Clouds FEW100 22 17 73% 76.02 0.0
07 06:50 W 13 12.87 Light Rain FEW041 SCT060 BKN085 22 19 83% 76.1 0.0
07 06:35 Vrbl 11 G 26 14.48 Mostly Cloudy FEW060 SCT070 BKN120 23 18 74% 76.07 0.0
07 06:15 W 17 11.27 Fair CLR 23 17 69% 76.15 0.0
07 05:55 W 15 14.48 A Few Clouds FEW090 23 18 74% 76.12 0.0
07 05:35 Vrbl 13 16.09 Partly Cloudy FEW018 SCT090 23 19 78% 76.12 0.0
07 05:15 SW 11 16.09 Partly Cloudy SCT016 SCT090 23 19 78% 76.1 0.0
07 04:55 SW 9 16.09 Partly Cloudy FEW015 SCT100 23 20 83% 76.05 0.0
07 04:35 Vrbl 11 G 22 16.09 Fair CLR 23 20 83% 76 0.0
07 04:15 SW 19 G 30 16.09 Partly Cloudy SCT019 23 20 83% 75.97 0.0
07 03:55 SW 19 G 31 16.09 Mostly Cloudy BKN020 BKN025 23 20 83% 75.97 0.0 0.03
07 03:35 SW 20 G 30 16.09 Partly Cloudy SCT023 24 20 78% 24 75.95 0.0
07 03:15 SW 24 G 33 16.09 Fair CLR 24 19 74% 25 76 0.0
07 02:55 SW 22 16.09 Fair CLR 24 19 74% 25 76 0.0 0.03
07 02:35 SW 17 G 39 16.09 Fair CLR 24 19 74% 25 76 0.0
07 02:15 S 20 G 33 16.09 Fair CLR 24 20 78% 24 76.02 0.0
07 01:55 SW 22 16.09 Fair CLR 24 20 78% 24 76.05 0.0
07 01:35 S 20 G 31 16.09 Fair CLR 24 20 78% 24 76.07 0.0
07 00:55 S 19 G 35 16.09 Fair CLR 24 20 78% 24 76.1 0.0
07 00:35 S 22 G 37 16.09 Fair CLR 24 21 83% 24 76.1 0.0
07 00:15 S 19 G 30 16.09 Fair CLR 24 21 83% 24 76.12 0.0
06 23:35 S 22 G 35 16.09 Fair CLR 23 21 89% 76.12 0.0
06 23:15 S 20 G 31 16.09 Fair CLR 23 21 89% 76.1 0.0
06 22:55 S 24 G 35 16.09 Fair CLR 23 21 89% 76.1 0.0
06 22:35 S 17 G 31 16.09 Fair CLR 23 21 89% 76.07 0.0
06 22:15 Vrbl 13 G 33 16.09 Fair CLR 23 21 89% 76.07 0.0
06 21:55 S 20 G 31 16.09 Fair CLR 23 21 89% 76.1 0.0 0.03
06 21:35 S 17 G 28 16.09 Fair CLR 23 21 89% 76.12 0.0
06 21:15 S 17 G 28 16.09 Fair CLR 24 20 78% 24 76.15 0.0
06 20:50 S 15 G 26 16.09 Fair CLR 23 20 83% 76.12 0.0
06 19:50 S 15 G 26 16.09 Fair CLR 24 20 78% 24 76.1 0.0
06 18:50 SW 9 G 39 16.09 Fair CLR 25 20 74% 26 76.1 0.0
06 17:50 S 22 16.09 Fair CLR 25 20 74% 26 76.12 0.0
06 16:50 SW 17 G 35 16.09 Fair CLR 25 20 74% 26 76.15 0.0
06 15:50 Vrbl 1509 16.09 Fair and Windy CLR 26 20 70% 27 76.17 0.0
06 14:50 Vrbl 11 G 31 16.09 Fair CLR 26 19 65% 27 76.23 0.0
06 13:50 S 19 16.09 Fair CLR 27 19 62% 28 76.28 0.0
06 12:50 S 13 G 26 16.09 Fair CLR 25 19 69% 26 76.33 0.0
06 11:50 S 13 G 24 16.09 Fair CLR 25 18 65% 26 76.35 0.0
06 10:50 SW 17 16.09 Fair CLR 26 17 58% 27 76.35 0.0
06 09:50 SW 20 16.09 Fair CLR 24 19 74% 25 76.33 0.0
06 08:50 SW 15 G 24 16.09 Fair CLR 23 19 78% 76.3 0.0
06 07:50 SW 11 16.09 Fair CLR 22 19 83% 76.25 0.0
06 06:50 S 7 16.09 Fair CLR 20 19 94% 76.23 0.0
06 06:35 S 6 16.09 Fair CLR 19 18 94% 76.25 0.0
06 06:15 S 9 16.09 Fair CLR 20 18 88% 76.23 0.0
06 05:55 S 7 16.09 Fair CLR 20 18 88% 76.23 0.0
06 05:35 S 9 16.09 Fair CLR 20 18 88% 76.23 0.0
06 05:15 S 7 16.09 Fair CLR 20 18 88% 76.23 0.0
06 04:55 S 9 16.09 Fair CLR 21 18 83% 76.2 0.0
06 04:35 S 11 16.09 Fair CLR 21 17 78% 76.23 0.0
06 04:15 Vrbl 9 16.09 Fair CLR 21 17 78% 76.2 0.0
06 03:55 S 13 16.09 Fair CLR 21 17 78% 76.2 0.0 0.03
06 03:35 S 15 16.09 Fair CLR 21 17 78% 76.23 0.0
06 03:15 S 11 16.09 Fair CLR 21 17 78% 76.23 0.0
06 02:55 S 13 16.09 Fair CLR 21 17 78% 76.2 0.0
06 02:35 S 13 G 22 16.09 Fair CLR 21 17 78% 76.23 0.0
06 02:15 S 13 16.09 Fair CLR 21 16 73% 76.25 0.0
06 01:55 S 13 G 22 16.09 Fair CLR 21 16 73% 76.25 0.0 0.03
06 01:15 Vrbl 11 16.09 Fair CLR 21 15 69% 76.28 0.0
06 00:55 Vrbl 13 16.09 Fair CLR 21 14 64% 76.28 0.0
06 00:35 S 11 16.09 Fair CLR 21 14 64% 76.28 0.0
06 00:15 S 11 16.09 Fair CLR 21 14 64% 76.3 0.0
05 23:55 S 11 G 22 16.09 Fair CLR 21 14 64% 76.3 0.0 0.03
05 23:35 S 17 16.09 Fair CLR 21 14 64% 76.3 0.0
05 23:15 Vrbl 9 16.09 Fair CLR 21 14 64% 76.3 0.0
05 22:55 Vrbl 11 16.09 Fair CLR 21 14 64% 76.3 0.0
05 22:35 S 13 G 22 16.09 Fair CLR 21 14 64% 76.3 0.0
05 22:15 Vrbl 6 G 19 16.09 Fair CLR 21 14 64% 76.28 0.0
05 21:55 Vrbl 7 G 22 16.09 Fair CLR 21 14 64% 76.28 0.0
05 21:35 Vrbl 6 16.09 Fair CLR 21 13 60% 76.28 0.0
05 21:15 Vrbl 7 16.09 Fair CLR 21 13 60% 76.3 0.0
05 20:50 Vrbl 7 G 19 16.09 Fair CLR 21 14 64% 76.25 0.0
05 19:51 Vrbl 7 G 20 16.09 Fair CLR 21 12 57% 76.28 0.0
05 18:50 Vrbl 11 G 30 16.09 Fair CLR 23 13 53% 76.25 0.0
05 17:50 Vrbl 11 G 22 16.09 Fair CLR 23 13 53% 76.28 0.0
05 16:50 Vrbl 11 G 22 16.09 Fair CLR 24 12 47% 25 76.28 0.0
05 15:50 Vrbl 7 G 28 16.09 Fair CLR 23 14 57% 76.33 0.0
05 14:50 S 13 G 30 16.09 Fair CLR 23 13 53% 76.4 0.0
05 13:51 S 15 G 28 16.09 Fair CLR 24 14 54% 25 76.4 0.0
05 12:50 SE 13 G 22 16.09 Fair CLR 24 14 54% 25 76.38 0.0
05 11:50 S 9 G 24 16.09 Fair CLR 23 14 57% 76.43 0.0
05 10:50 S 19 16.09 Fair CLR 23 13 53% 76.4 0.0
05 09:50 S 11 G 20 16.09 Fair CLR 22 15 65% 76.4 0.0
05 08:50 S 11 16.09 Fair CLR 22 14 61% 76.38 0.0
05 07:50 Calm 16.09 Fair CLR 17 14 83% 76.35 0.0
05 06:50 Calm 16.09 Fair CLR 14 12 88% 76.33 0.0
05 06:35 Calm 16.09 Fair CLR 15 12 82% 76.3 0.0
Date Time (edt) Wind (kph) Vis. (km) Weather Sky Cond. Air Dwpt Max. Min. Relative Humidity Wind Chill (°C) Heat Index (°C) altimeter (cm) sea level (mb) 1 hr 3 hr 6 hr
6 hour
Temperature (ºC) Pressure Precipitation (cm)